createdAt,value
2023-01-17T00:00:42.617Z,89.65
2023-01-17T00:03:09.004Z,89.64
2023-01-17T00:05:35.388Z,89.66
2023-01-17T00:08:01.775Z,91.16
2023-01-17T00:10:28.176Z,92.75
2023-01-17T00:12:54.561Z,93.10
2023-01-17T00:15:20.951Z,94.22
2023-01-17T00:17:47.325Z,93.71
2023-01-17T00:20:13.694Z,92.89
2023-01-17T00:22:40.126Z,91.85
2023-01-17T00:25:06.510Z,92.36
2023-01-17T00:27:32.879Z,92.55
2023-01-17T00:29:59.313Z,92.34
2023-01-17T00:32:25.776Z,91.28
2023-01-17T00:34:52.192Z,91.18
2023-01-17T00:37:18.561Z,89.72
2023-01-17T00:39:44.982Z,89.28
2023-01-17T00:42:11.366Z,89.10
2023-01-17T00:44:37.790Z,88.23
2023-01-17T00:47:04.192Z,87.22
2023-01-17T00:49:30.796Z,87.03
2023-01-17T00:51:57.283Z,86.69
2023-01-17T00:54:23.639Z,86.97
2023-01-17T00:56:50.039Z,84.64
2023-01-17T00:59:16.465Z,83.87
2023-01-17T01:01:42.989Z,83.49
2023-01-17T01:04:09.552Z,83.99
2023-01-17T01:06:35.928Z,84.34
2023-01-17T01:09:02.287Z,83.50
2023-01-17T01:11:28.692Z,83.30
2023-01-17T01:13:55.128Z,84.01
2023-01-17T01:16:21.508Z,83.62
2023-01-17T01:18:47.885Z,83.65
2023-01-17T01:21:14.331Z,82.62
2023-01-17T01:23:40.713Z,82.13
2023-01-17T01:26:07.083Z,84.98
2023-01-17T01:28:33.924Z,85.01
2023-01-17T01:31:00.316Z,84.41
2023-01-17T01:33:26.689Z,83.74
2023-01-17T01:35:53.067Z,83.16
2023-01-17T01:38:19.444Z,82.52
2023-01-17T01:40:45.865Z,81.80
2023-01-17T01:43:12.300Z,82.51
2023-01-17T01:45:38.690Z,82.72
2023-01-17T01:48:05.122Z,80.77
2023-01-17T01:50:31.495Z,79.59
2023-01-17T01:52:57.875Z,79.63
2023-01-17T01:55:24.266Z,81.20
2023-01-17T01:57:50.641Z,80.53
2023-01-17T02:00:17.080Z,81.13
2023-01-17T02:02:43.556Z,84.19
2023-01-17T02:05:09.958Z,84.21
2023-01-17T02:07:36.485Z,84.28
2023-01-17T02:10:02.888Z,84.21
2023-01-17T02:12:29.266Z,83.86
2023-01-17T02:14:55.691Z,84.10
2023-01-17T02:17:22.060Z,84.52
2023-01-17T02:19:48.430Z,84.17
2023-01-17T02:22:14.803Z,83.73
2023-01-17T02:24:41.177Z,83.83
2023-01-17T02:27:07.584Z,83.97
2023-01-17T02:29:33.952Z,83.53
2023-01-17T02:32:00.356Z,83.01
2023-01-17T02:34:26.686Z,83.00
2023-01-17T02:36:53.036Z,81.88
2023-01-17T02:39:19.425Z,80.49
2023-01-17T02:41:45.797Z,81.35
2023-01-17T02:44:12.187Z,80.24
2023-01-17T02:46:38.549Z,79.76
2023-01-17T02:49:04.956Z,78.82
2023-01-17T02:51:31.346Z,78.21
2023-01-17T02:53:57.723Z,78.51
2023-01-17T02:56:24.090Z,80.02
2023-01-17T02:58:50.524Z,80.05
2023-01-17T03:01:16.983Z,78.57
2023-01-17T03:03:43.388Z,79.61
2023-01-17T03:06:09.786Z,79.88
2023-01-17T03:08:36.192Z,80.38
2023-01-17T03:11:02.574Z,80.77
2023-01-17T03:13:28.945Z,79.93
2023-01-17T03:15:55.309Z,79.58
2023-01-17T03:18:21.685Z,78.78
2023-01-17T03:20:48.074Z,78.28
2023-01-17T03:23:14.472Z,79.30
2023-01-17T03:25:40.826Z,80.92
2023-01-17T03:28:07.212Z,81.47
2023-01-17T03:30:33.631Z,81.45
2023-01-17T03:33:00.055Z,81.59
2023-01-17T03:35:26.476Z,81.05
2023-01-17T03:37:52.840Z,81.07
2023-01-17T03:40:19.233Z,81.05
2023-01-17T03:42:45.624Z,80.86
2023-01-17T03:45:12.039Z,81.40
2023-01-17T03:47:38.514Z,80.84
2023-01-17T03:50:04.900Z,80.84
2023-01-17T03:52:31.307Z,80.61
2023-01-17T03:54:57.700Z,80.37
2023-01-17T03:57:24.094Z,80.38
2023-01-17T03:59:50.497Z,79.01
2023-01-17T04:02:17.137Z,79.07
2023-01-17T04:04:43.608Z,79.38
2023-01-17T04:07:09.999Z,78.53
2023-01-17T04:09:36.562Z,79.23
2023-01-17T04:12:02.956Z,78.68
2023-01-17T04:14:29.325Z,79.57
2023-01-17T04:16:55.793Z,79.55
2023-01-17T04:19:22.141Z,79.29
2023-01-17T04:21:48.511Z,79.83
2023-01-17T04:24:17.728Z,79.73
2023-01-17T04:26:44.212Z,79.43
2023-01-17T04:29:10.598Z,79.92
2023-01-17T04:31:37.003Z,79.21
2023-01-17T04:34:03.417Z,79.03
2023-01-17T04:36:29.821Z,79.73
2023-01-17T04:38:56.207Z,79.03
2023-01-17T04:41:22.575Z,79.30
2023-01-17T04:43:49.002Z,79.75
2023-01-17T04:46:15.440Z,79.71
2023-01-17T04:48:41.838Z,79.49
2023-01-17T04:51:08.262Z,77.54
2023-01-17T04:53:34.649Z,76.81
2023-01-17T04:56:01.018Z,76.94
2023-01-17T04:58:27.393Z,76.69
2023-01-17T05:00:53.861Z,76.32
2023-01-17T05:03:20.255Z,76.05
2023-01-17T05:05:46.649Z,76.98
2023-01-17T05:08:13.028Z,76.26
2023-01-17T05:10:39.419Z,75.86
2023-01-17T05:13:05.846Z,77.04
2023-01-17T05:15:32.352Z,77.14
2023-01-17T05:17:58.981Z,77.27
2023-01-17T05:20:25.367Z,77.28
2023-01-17T05:22:51.792Z,76.24
2023-01-17T05:25:18.200Z,76.22
2023-01-17T05:27:44.672Z,76.71
2023-01-17T05:30:11.074Z,77.81
2023-01-17T05:32:37.427Z,76.99
2023-01-17T05:35:04.000Z,74.21
2023-01-17T05:37:30.374Z,74.41
2023-01-17T05:39:56.759Z,72.67
2023-01-17T05:42:23.160Z,71.95
2023-01-17T05:44:49.597Z,72.57
2023-01-17T05:47:16.101Z,72.08
2023-01-17T05:49:45.085Z,72.15
2023-01-17T05:52:12.259Z,72.79
2023-01-17T05:54:39.594Z,71.42
2023-01-17T05:57:05.962Z,72.71
2023-01-17T05:59:37.282Z,72.74
2023-01-17T06:02:04.021Z,73.63
2023-01-17T06:04:30.433Z,74.71
2023-01-17T06:06:56.847Z,75.28
2023-01-17T06:09:23.261Z,73.94
2023-01-17T06:11:49.739Z,73.84
2023-01-17T06:14:16.193Z,72.16
2023-01-17T06:16:42.555Z,73.10
2023-01-17T06:19:08.970Z,73.12
2023-01-17T06:21:36.620Z,74.09
2023-01-17T06:24:04.320Z,75.84
2023-01-17T06:26:30.869Z,75.69
2023-01-17T06:28:57.265Z,75.58
2023-01-17T06:31:23.746Z,73.72
2023-01-17T06:33:50.265Z,74.54
2023-01-17T06:36:16.645Z,74.03
2023-01-17T06:38:43.062Z,71.01
2023-01-17T06:41:09.415Z,70.58
2023-01-17T06:43:35.797Z,72.02
2023-01-17T06:46:04.061Z,73.49
2023-01-17T06:48:30.515Z,71.54
2023-01-17T06:50:56.903Z,69.94
2023-01-17T06:53:23.290Z,70.56
2023-01-17T06:55:49.659Z,72.37
2023-01-17T06:58:16.228Z,72.52
2023-01-17T07:00:42.641Z,71.52
2023-01-17T07:03:09.087Z,70.97
2023-01-17T07:05:35.570Z,71.32
2023-01-17T07:08:01.954Z,71.85
2023-01-17T07:10:28.465Z,72.03
2023-01-17T07:12:54.981Z,71.47
2023-01-17T07:15:21.352Z,73.36
2023-01-17T07:17:47.777Z,73.81
